Time;durP1;ratioP1;P1;durP2;ratioP2;P2;SDS_P1;SDS_P2;PMS_P1;PMS_P2;Temp;Humidity;BMP_temperature;BMP_pressure;BME280_temperature;BME280_humidity;BME280_pressure;Samples;Min_cycle;Max_cycle;Signal;HPM_P1;HPM_P2
2022/08/04 00:01:32;;;;;;;;;;;;;;;;;;5054560;28;1367;-66
2022/08/04 00:04:20;;;;;;;;;;;;;;;;;;5057835;28;1395;-66
2022/08/04 00:06:50;;;;;;;;;;;;;;;;;;5052642;28;1408;-66
2022/08/04 00:09:33;;;;;;;;;;;;;;;;;;5062130;28;1447;-67
2022/08/04 00:12:01;;;;;;;;;;;;;;;;;;5037434;28;1532;-65
2022/08/04 00:14:29;;;;;;;;;;;;;;;;;;5052918;28;1207;-65
2022/08/04 00:16:54;;;;;;;;;;;;;;;;;;5051772;28;1578;-65
2022/08/04 00:19:19;;;;;;;;;;;;;;;;;;5055869;28;1288;-66
2022/08/04 00:21:53;;;;;;;;;;;;;;;;;;5059886;28;1217;-66
2022/08/04 00:24:20;;;;;;;;;;;;;;;;;;5046928;28;1428;-66
2022/08/04 00:26:46;;;;;;;;;;;;;;;;;;5041509;28;1444;-66
2022/08/04 00:29:11;;;;;;;;;;;;;;;;;;5054520;28;1199;-66
2022/08/04 00:31:36;;;;;;;;;;;;;;;;;;5057275;28;1905;-66
2022/08/04 00:34:02;;;;;;;;;;;;;;;;;;5058273;28;1131;-66
2022/08/04 00:36:28;;;;;;;;;;;;;;;;;;5051983;28;1487;-66
2022/08/04 00:38:54;;;;;;;;;;;;;;;;;;5057736;28;1622;-66
2022/08/04 00:41:29;;;;;;;;;;;;;;;;;;5059482;28;1487;-66
2022/08/04 00:44:04;;;;;;;;;;;;;;;;;;5058281;28;1206;-66
2022/08/04 00:46:38;;;;;;;;;;;;;;;;;;5055913;28;1650;-67
2022/08/04 00:49:09;;;;;;;;;;;;;;;;;;5059663;28;1206;-67
2022/08/04 00:51:53;;;;;;;;;;;;;;;;;;5049010;28;1969;-67
2022/08/04 00:54:27;;;;;;;;;;;;;;;;;;5050037;28;1145;-67
2022/08/04 00:57:10;;;;;;;;;;;;;;;;;;5052341;28;1421;-67
2022/08/04 00:59:51;;;;;;;;;;;;;;;;;;5059373;28;1484;-67
2022/08/04 01:02:24;;;;;;;;;;;;;;;;;;5058237;28;1806;-67
2022/08/04 01:04:57;;;;;;;;;;;;;;;;;;5047122;28;1258;-67
2022/08/04 01:07:23;;;;;;;;;;;;;;;;;;5048603;28;1602;-67
2022/08/04 01:10:03;;;;;;;;;;;;;;;;;;5059993;28;1968;-67
2022/08/04 01:12:34;;;;;;;;;;;;;;;;;;5039681;28;1519;-66
2022/08/04 01:14:59;;;;;;;;;;;;;;;;;;5051566;28;1199;-66
2022/08/04 01:17:36;;;;;;;;;;;;;;;;;;5056040;28;1657;-66
2022/08/04 01:20:08;;;;;;;;;;;;;;;;;;5059814;28;1085;-65
2022/08/04 01:22:33;;;;;;;;;;;;;;;;;;5056079;28;1511;-66
2022/08/04 01:25:07;;;;;;;;;;;;;;;;;;5034044;28;1468;-66
2022/08/04 01:27:41;;;;;;;;;;;;;;;;;;5049497;28;1589;-66
2022/08/04 01:30:07;;;;;;;;;;;;;;;;;;5058835;28;1955;-66
2022/08/04 01:32:44;;;;;;;;;;;;;;;;;;5054869;28;1324;-65
2022/08/04 01:35:12;;;;;;;;;;;;;;;;;;5060184;28;1213;-66
2022/08/04 01:37:52;;;;;;;;;;;;;;;;;;5043384;28;1522;-65
2022/08/04 01:40:17;;;;;;;;;;;;;;;;;;5041616;28;1491;-65
2022/08/04 01:42:44;;;;;;;;;;;;;;;;;;5046247;28;1524;-65
2022/08/04 01:45:10;;;;;;;;;;;;;;;;;;5055914;28;1504;-66
2022/08/04 01:47:36;;;;;;;;;;;;;;;;;;5054772;28;1365;-66
2022/08/04 01:50:08;;;;;;;;;;;;;;;;;;5056170;28;1957;-66
2022/08/04 01:52:35;;;;;;;;;;;;;;;;;;5041038;28;1598;-66
2022/08/04 01:55:02;;;;;;;;;;;;;;;;;;5059038;28;1136;-66
2022/08/04 01:57:28;;;;;;;;;;;;;;;;;;5058085;28;1542;-66
2022/08/04 01:59:55;;;;;;;;;;;;;;;;;;5051180;28;1284;-66
2022/08/04 02:02:23;;;;;;;;;;;;;;;;;;5053225;28;1658;-66
2022/08/04 02:04:48;;;;;;;;;;;;;;;;;;5045535;28;1214;-66
2022/08/04 02:07:26;;;;;;;;;;;;;;;;;;5060100;28;1279;-67
2022/08/04 02:09:52;;;;;;;;;;;;;;;;;;5060621;28;1963;-66
2022/08/04 02:12:35;;;;;;;;;;;;;;;;;;5052046;28;1586;-66
2022/08/04 02:15:19;;;;;;;;;;;;;;;;;;5060691;28;1093;-66
2022/08/04 02:17:44;;;;;;;;;;;;;;;;;;5053716;28;1279;-66
2022/08/04 02:20:22;;;;;;;;;;;;;;;;;;5042684;28;1246;-65
2022/08/04 02:22:50;;;;;;;;;;;;;;;;;;5040865;28;823;-66
2022/08/04 02:25:18;;;;;;;;;;;;;;;;;;5043824;28;862;-66
2022/08/04 02:27:46;;;;;;;;;;;;;;;;;;5044724;28;1622;-66
2022/08/04 02:30:11;;;;;;;;;;;;;;;;;;5062533;28;1960;-66
2022/08/04 02:32:40;;;;;;;;;;;;;;;;;;5060525;28;1466;-66
2022/08/04 02:35:06;;;;;;;;;;;;;;;;;;5057999;28;1206;-66
2022/08/04 02:37:32;;;;;;;;;;;;;;;;;;5061602;28;1674;-66
2022/08/04 02:39:58;;;;;;;;;;;;;;;;;;5063017;28;779;-66
2022/08/04 02:42:23;;;;;;;;;;;;;;;;;;5058469;28;1677;-66
2022/08/04 02:44:49;;;;;;;;;;;;;;;;;;5063820;28;1077;-66
2022/08/04 02:47:17;;;;;;;;;;;;;;;;;;5056677;28;1656;-66
2022/08/04 02:49:44;;;;;;;;;;;;;;;;;;5063148;28;1961;-66
2022/08/04 02:52:11;;;;;;;;;;;;;;;;;;5057197;28;1464;-66
2022/08/04 02:54:38;;;;;;;;;;;;;;;;;;5053717;28;1401;-67
2022/08/04 02:57:05;;;;;;;;;;;;;;;;;;5057472;28;1460;-66
2022/08/04 02:59:37;;;;;;;;;;;;;;;;;;5057530;28;1468;-66
2022/08/04 03:02:02;;;;;;;;;;;;;;;;;;5042711;28;1598;-66
2022/08/04 03:04:59;;;;;;;;;;;;;;;;;;5063636;28;1072;-66
2022/08/04 03:07:43;;;;;;;;;;;;;;;;;;5014343;28;1427;-66
2022/08/04 03:10:25;;;;;;;;;;;;;;;;;;5063463;28;1890;-66
2022/08/04 03:13:06;;;;;;;;;;;;;;;;;;5055312;28;1458;-66
2022/08/04 03:15:34;;;;;;;;;;;;;;;;;;5060744;28;1340;-66
2022/08/04 03:18:27;;;;;;;;;;;;;;;;;;5061358;28;1338;-67
2022/08/04 03:20:56;;;;;;;;;;;;;;;;;;5059343;28;1617;-66
2022/08/04 03:23:39;;;;;;;;;;;;;;;;;;5063296;28;1190;-66
2022/08/04 03:26:23;;;;;;;;;;;;;;;;;;5060556;28;1598;-66
2022/08/04 03:28:48;;;;;;;;;;;;;;;;;;5053883;28;1218;-66
2022/08/04 03:31:27;;;;;;;;;;;;;;;;;;5056312;28;2414;-66
2022/08/04 03:33:55;;;;;;;;;;;;;;;;;;5061605;28;1136;-66
2022/08/04 03:36:26;;;;;;;;;;;;;;;;;;5062584;28;1172;-67
2022/08/04 03:39:10;;;;;;;;;;;;;;;;;;5045558;28;1097;-66
2022/08/04 03:41:47;;;;;;;;;;;;;;;;;;5059917;28;1621;-66
2022/08/04 03:44:16;;;;;;;;;;;;;;;;;;5063233;28;1219;-67
2022/08/04 03:47:00;;;;;;;;;;;;;;;;;;5050177;28;1602;-66
2022/08/04 03:49:43;;;;;;;;;;;;;;;;;;5054819;28;1150;-66
2022/08/04 03:55:17;;;;;;;;;;;;;;;;;;5062934;28;1539;-66
2022/08/04 03:58:01;;;;;;;;;;;;;;;;;;5061494;28;1283;-66
2022/08/04 04:00:30;;;;;;;;;;;;;;;;;;5048587;28;1253;-66
2022/08/04 04:03:07;;;;;;;;;;;;;;;;;;5035337;28;1368;-66
2022/08/04 04:05:47;;;;;;;;;;;;;;;;;;5055609;28;1206;-66
2022/08/04 04:08:23;;;;;;;;;;;;;;;;;;5060978;28;1531;-66
2022/08/04 04:11:06;;;;;;;;;;;;;;;;;;5056837;28;1894;-66
2022/08/04 04:13:43;;;;;;;;;;;;;;;;;;5062045;28;990;-66
2022/08/04 04:16:31;;;;;;;;;;;;;;;;;;5055045;28;1335;-66
2022/08/04 04:19:05;;;;;;;;;;;;;;;;;;5041815;28;1354;-66
2022/08/04 04:21:49;;;;;;;;;;;;;;;;;;5051610;28;1484;-66
2022/08/04 04:24:20;;;;;;;;;;;;;;;;;;5053750;28;1535;-66
2022/08/04 04:26:50;;;;;;;;;;;;;;;;;;5058554;28;1258;-66
2022/08/04 04:29:34;;;;;;;;;;;;;;;;;;5052831;28;1261;-67
2022/08/04 04:32:04;;;;;;;;;;;;;;;;;;5053928;28;1886;-67
2022/08/04 04:34:37;;;;;;;;;;;;;;;;;;5062022;28;1111;-67
2022/08/04 04:37:02;;;;;;;;;;;;;;;;;;5038040;28;1575;-65
2022/08/04 04:39:27;;;;;;;;;;;;;;;;;;5061449;28;1136;-67
2022/08/04 04:42:21;;;;;;;;;;;;;;;;;;5057788;28;1581;-66
2022/08/04 04:44:46;;;;;;;;;;;;;;;;;;5061618;28;1052;-68
2022/08/04 04:47:14;;;;;;;;;;;;;;;;;;5054669;28;1523;-67
2022/08/04 04:49:45;;;;;;;;;;;;;;;;;;5056762;28;1906;-69
2022/08/04 04:52:29;;;;;;;;;;;;;;;;;;5061946;28;1623;-69
2022/08/04 04:55:16;;;;;;;;;;;;;;;;;;5054923;28;1536;-68
2022/08/04 04:57:43;;;;;;;;;;;;;;;;;;5055538;28;1334;-69
2022/08/04 05:00:11;;;;;;;;;;;;;;;;;;5060427;28;1187;-70
2022/08/04 05:02:57;;;;;;;;;;;;;;;;;;5041743;28;1578;-68
2022/08/04 05:05:41;;;;;;;;;;;;;;;;;;5045601;28;1186;-68
2022/08/04 05:08:23;;;;;;;;;;;;;;;;;;5044897;28;1263;-69
2022/08/04 05:10:48;;;;;;;;;;;;;;;;;;5049736;28;1890;-69
2022/08/04 05:13:22;;;;;;;;;;;;;;;;;;5035736;28;1480;-69
2022/08/04 05:15:48;;;;;;;;;;;;;;;;;;5055194;28;1226;-69
2022/08/04 05:18:17;;;;;;;;;;;;;;;;;;5040942;28;1160;-70
2022/08/04 05:20:44;;;;;;;;;;;;;;;;;;5042228;28;1344;-70
2022/08/04 05:23:15;;;;;;;;;;;;;;;;;;5060953;28;1203;-70
2022/08/04 05:25:54;;;;;;;;;;;;;;;;;;5061742;28;914;-70
2022/08/04 05:28:23;;;;;;;;;;;;;;;;;;5055340;28;1362;-70
2022/08/04 05:30:55;;;;;;;;;;;;;;;;;;5051422;28;1894;-70
2022/08/04 05:33:26;;;;;;;;;;;;;;;;;;5048743;28;1559;-70
2022/08/04 05:35:53;;;;;;;;;;;;;;;;;;5057161;28;1461;-70
2022/08/04 05:38:21;;;;;;;;;;;;;;;;;;5059742;28;1278;-70
2022/08/04 05:40:47;;;;;;;;;;;;;;;;;;5059955;28;850;-70
2022/08/04 05:43:13;;;;;;;;;;;;;;;;;;5059853;28;953;-70
2022/08/04 05:45:38;;;;;;;;;;;;;;;;;;5052393;28;1475;-70
2022/08/04 05:48:05;;;;;;;;;;;;;;;;;;5056863;28;1856;-70
2022/08/04 05:50:31;;;;;;;;;;;;;;;;;;5059296;28;1898;-70
2022/08/04 05:52:57;;;;;;;;;;;;;;;;;;5057790;28;1113;-71
2022/08/04 05:55:24;;;;;;;;;;;;;;;;;;5053898;28;1290;-71
2022/08/04 05:57:49;;;;;;;;;;;;;;;;;;5059178;28;1184;-69
2022/08/04 06:00:16;;;;;;;;;;;;;;;;;;5055563;28;1457;-69
2022/08/04 06:02:43;;;;;;;;;;;;;;;;;;5070037;28;1302;-71
2022/08/04 06:05:09;;;;;;;;;;;;;;;;;;5046856;28;1279;-71
2022/08/04 06:07:34;;;;;;;;;;;;;;;;;;5067462;28;1314;-71
2022/08/04 06:10:00;;;;;;;;;;;;;;;;;;5073131;28;1894;-70
2022/08/04 06:12:29;;;;;;;;;;;;;;;;;;5067512;28;1313;-71
2022/08/04 06:14:56;;;;;;;;;;;;;;;;;;5067964;28;1298;-71
2022/08/04 06:17:24;;;;;;;;;;;;;;;;;;5070257;28;1379;-71
2022/08/04 06:19:51;;;;;;;;;;;;;;;;;;5064104;28;1215;-71
2022/08/04 06:22:16;;;;;;;;;;;;;;;;;;5061143;28;1338;-70
2022/08/04 06:24:44;;;;;;;;;;;;;;;;;;5058922;28;1091;-71
2022/08/04 06:27:09;;;;;;;;;;;;;;;;;;5058488;28;1239;-70
2022/08/04 06:29:37;;;;;;;;;;;;;;;;;;5043565;28;1551;-70
2022/08/04 06:32:12;;;;;;;;;;;;;;;;;;5046251;28;1890;-70
2022/08/04 06:34:38;;;;;;;;;;;;;;;;;;5049494;28;1274;-70
2022/08/04 06:37:05;;;;;;;;;;;;;;;;;;5033698;28;1295;-70
2022/08/04 06:39:30;;;;;;;;;;;;;;;;;;5030757;28;1278;-70
2022/08/04 06:41:56;;;;;;;;;;;;;;;;;;5027825;28;1159;-70
2022/08/04 06:44:23;;;;;;;;;;;;;;;;;;5045901;28;1251;-70
2022/08/04 06:46:49;;;;;;;;;;;;;;;;;;5049148;28;1377;-70
2022/08/04 06:49:16;;;;;;;;;;;;;;;;;;5052123;28;1385;-71
2022/08/04 06:51:41;;;;;;;;;;;;;;;;;;5046759;28;1921;-70
2022/08/04 06:54:07;;;;;;;;;;;;;;;;;;5050163;28;1755;-70
2022/08/04 06:56:35;;;;;;;;;;;;;;;;;;5055675;28;1438;-71
2022/08/04 06:59:01;;;;;;;;;;;;;;;;;;5048299;28;1283;-71
2022/08/04 07:01:27;;;;;;;;;;;;;;;;;;5049021;28;1290;-71
2022/08/04 07:03:52;;;;;;;;;;;;;;;;;;5048362;28;1421;-71
2022/08/04 07:06:19;;;;;;;;;;;;;;;;;;5061375;28;1383;-73
2022/08/04 07:08:45;;;;;;;;;;;;;;;;;;5063855;28;1133;-74
2022/08/04 07:11:11;;;;;;;;;;;;;;;;;;5057936;28;1935;-73
2022/08/04 07:13:36;;;;;;;;;;;;;;;;;;5069024;28;1235;-73
2022/08/04 07:16:02;;;;;;;;;;;;;;;;;;5064954;28;1325;-74
2022/08/04 07:18:29;;;;;;;;;;;;;;;;;;5059894;28;1441;-73
2022/08/04 07:20:54;;;;;;;;;;;;;;;;;;5062010;28;1389;-73
2022/08/04 07:23:24;;;;;;;;;;;;;;;;;;5059545;28;1271;-73
2022/08/04 07:25:51;;;;;;;;;;;;;;;;;;5061162;28;1511;-73
2022/08/04 07:28:16;;;;;;;;;;;;;;;;;;5060846;28;1268;-73
2022/08/04 07:30:43;;;;;;;;;;;;;;;;;;5066844;28;1959;-73
2022/08/04 07:33:09;;;;;;;;;;;;;;;;;;5056850;28;1318;-73
2022/08/04 07:35:36;;;;;;;;;;;;;;;;;;5065832;28;1256;-74
2022/08/04 07:38:01;;;;;;;;;;;;;;;;;;5061712;28;1334;-73
2022/08/04 07:40:27;;;;;;;;;;;;;;;;;;5059672;28;1748;-73
2022/08/04 07:42:52;;;;;;;;;;;;;;;;;;5043639;28;1426;-73
2022/08/04 07:45:18;;;;;;;;;;;;;;;;;;5062984;28;803;-73
2022/08/04 07:47:43;;;;;;;;;;;;;;;;;;5062514;28;1658;-74
2022/08/04 07:50:09;;;;;;;;;;;;;;;;;;5060135;28;1898;-73
2022/08/04 07:52:35;;;;;;;;;;;;;;;;;;5054465;28;1613;-74
2022/08/04 07:55:01;;;;;;;;;;;;;;;;;;5046681;28;1327;-73
2022/08/04 07:57:26;;;;;;;;;;;;;;;;;;5053462;28;1331;-74
2022/08/04 07:59:51;;;;;;;;;;;;;;;;;;5053648;28;1346;-74
2022/08/04 08:02:17;;;;;;;;;;;;;;;;;;5056427;28;1579;-71
2022/08/04 08:04:43;;;;;;;;;;;;;;;;;;5049997;28;1554;-70
2022/08/04 08:07:08;;;;;;;;;;;;;;;;;;5041231;28;1445;-69
2022/08/04 08:09:33;;;;;;;;;;;;;;;;;;5062885;28;989;-70
2022/08/04 08:11:58;;;;;;;;;;;;;;;;;;5051495;28;1894;-69
2022/08/04 08:14:24;;;;;;;;;;;;;;;;;;5054244;28;1332;-70
2022/08/04 08:16:49;;;;;;;;;;;;;;;;;;5052027;28;1422;-69
2022/08/04 08:19:15;;;;;;;;;;;;;;;;;;5055609;28;1255;-70
2022/08/04 08:21:40;;;;;;;;;;;;;;;;;;5041230;28;948;-70
2022/08/04 08:24:05;;;;;;;;;;;;;;;;;;5044002;28;1582;-69
2022/08/04 08:26:31;;;;;;;;;;;;;;;;;;5047318;28;1617;-69
2022/08/04 08:28:56;;;;;;;;;;;;;;;;;;5059830;28;1156;-69
2022/08/04 08:31:21;;;;;;;;;;;;;;;;;;5052125;28;1883;-69
2022/08/04 08:33:47;;;;;;;;;;;;;;;;;;5058326;28;1354;-70
2022/08/04 08:36:19;;;;;;;;;;;;;;;;;;5061770;28;1202;-72
2022/08/04 08:38:48;;;;;;;;;;;;;;;;;;5054420;28;1640;-70
2022/08/04 08:41:14;;;;;;;;;;;;;;;;;;5060421;28;1276;-71
2022/08/04 08:43:44;;;;;;;;;;;;;;;;;;5057647;28;1395;-70
2022/08/04 08:46:28;;;;;;;;;;;;;;;;;;5050547;28;1280;-69
2022/08/04 08:48:58;;;;;;;;;;;;;;;;;;5061922;28;1128;-70
2022/08/04 08:51:30;;;;;;;;;;;;;;;;;;5060227;28;1977;-71
2022/08/04 08:54:04;;;;;;;;;;;;;;;;;;5053528;28;1549;-69
2022/08/04 08:56:32;;;;;;;;;;;;;;;;;;5057486;28;1629;-70
2022/08/04 08:59:07;;;;;;;;;;;;;;;;;;5045355;28;1293;-71
2022/08/04 09:01:32;;;;;;;;;;;;;;;;;;5041071;28;1306;-70
2022/08/04 09:04:16;;;;;;;;;;;;;;;;;;5042300;28;894;-70
2022/08/04 09:07:00;;;;;;;;;;;;;;;;;;5022588;28;1302;-71
2022/08/04 09:09:29;;;;;;;;;;;;;;;;;;5041900;28;796;-73
2022/08/04 09:12:00;;;;;;;;;;;;;;;;;;5046214;28;1898;-72
2022/08/04 09:14:33;;;;;;;;;;;;;;;;;;5034144;28;1481;-71
2022/08/04 09:17:06;;;;;;;;;;;;;;;;;;5041529;28;1270;-72
2022/08/04 09:19:38;;;;;;;;;;;;;;;;;;5055307;28;1339;-71
2022/08/04 09:22:08;;;;;;;;;;;;;;;;;;5054512;28;1364;-71
2022/08/04 09:24:42;;;;;;;;;;;;;;;;;;5061309;28;1139;-71
2022/08/04 09:27:27;;;;;;;;;;;;;;;;;;5040031;28;1626;-70
2022/08/04 09:30:06;;;;;;;;;;;;;;;;;;5057897;28;1898;-70
2022/08/04 09:32:37;;;;;;;;;;;;;;;;;;5060665;28;848;-70
2022/08/04 09:35:14;;;;;;;;;;;;;;;;;;5041412;28;878;-70
2022/08/04 09:37:39;;;;;;;;;;;;;;;;;;5040730;28;1165;-71
2022/08/04 09:40:24;;;;;;;;;;;;;;;;;;5049201;28;1322;-69
2022/08/04 09:42:50;;;;;;;;;;;;;;;;;;5058962;28;1260;-69
2022/08/04 09:45:26;;;;;;;;;;;;;;;;;;5046059;28;1356;-70
2022/08/04 09:47:53;;;;;;;;;;;;;;;;;;5052263;28;1330;-70
2022/08/04 09:50:27;;;;;;;;;;;;;;;;;;5026997;28;1967;-71
2022/08/04 09:52:58;;;;;;;;;;;;;;;;;;5060828;28;1460;-71
2022/08/04 09:55:23;;;;;;;;;;;;;;;;;;5061380;28;1004;-71
2022/08/04 09:57:54;;;;;;;;;;;;;;;;;;5057595;28;1562;-71
2022/08/04 10:00:19;;;;;;;;;;;;;;;;;;5046322;28;1241;-71
2022/08/04 10:02:59;;;;;;;;;;;;;;;;;;5057150;28;1191;-71
2022/08/04 10:05:26;;;;;;;;;;;;;;;;;;5041101;28;854;-70
2022/08/04 10:07:53;;;;;;;;;;;;;;;;;;5059215;28;1532;-70
2022/08/04 10:10:24;;;;;;;;;;;;;;;;;;5042905;28;1906;-70
2022/08/04 10:13:05;;;;;;;;;;;;;;;;;;5059067;28;1589;-70
2022/08/04 10:15:35;;;;;;;;;;;;;;;;;;5053635;28;1201;-70
2022/08/04 10:18:03;;;;;;;;;;;;;;;;;;5057212;28;1356;-70
2022/08/04 10:20:42;;;;;;;;;;;;;;;;;;5060242;28;1483;-70
2022/08/04 10:23:16;;;;;;;;;;;;;;;;;;5041793;28;1551;-70
2022/08/04 10:25:41;;;;;;;;;;;;;;;;;;5060892;28;1088;-70
2022/08/04 10:28:09;;;;;;;;;;;;;;;;;;5052365;28;1435;-70
2022/08/04 10:30:38;;;;;;;;;;;;;;;;;;5056666;28;1968;-70
2022/08/04 10:33:22;;;;;;;;;;;;;;;;;;5056226;28;1289;-69
2022/08/04 10:35:49;;;;;;;;;;;;;;;;;;5058570;28;1474;-70
2022/08/04 10:38:19;;;;;;;;;;;;;;;;;;5043156;28;1424;-69
2022/08/04 10:40:57;;;;;;;;;;;;;;;;;;5044619;28;1216;-72
2022/08/04 10:43:34;;;;;;;;;;;;;;;;;;5052905;28;1369;-72
2022/08/04 10:46:02;;;;;;;;;;;;;;;;;;5059594;28;1460;-72
2022/08/04 10:48:35;;;;;;;;;;;;;;;;;;5059571;28;1364;-72
2022/08/04 10:51:05;;;;;;;;;;;;;;;;;;5063579;28;1903;-72
2022/08/04 10:53:32;;;;;;;;;;;;;;;;;;5064345;28;1472;-72
2022/08/04 10:56:03;;;;;;;;;;;;;;;;;;5063927;28;909;-72
2022/08/04 10:58:37;;;;;;;;;;;;;;;;;;5063192;28;1271;-72
2022/08/04 11:01:05;;;;;;;;;;;;;;;;;;5061158;28;1339;-72
2022/08/04 11:03:37;;;;;;;;;;;;;;;;;;5064748;28;1349;-72
2022/08/04 11:06:02;;;;;;;;;;;;;;;;;;5063725;28;1443;-71
2022/08/04 11:08:34;;;;;;;;;;;;;;;;;;5056468;28;1484;-71
2022/08/04 11:11:18;;;;;;;;;;;;;;;;;;5063272;28;1886;-72
2022/08/04 11:13:49;;;;;;;;;;;;;;;;;;5063404;28;795;-72
2022/08/04 11:16:25;;;;;;;;;;;;;;;;;;5063404;28;871;-71
2022/08/04 11:19:09;;;;;;;;;;;;;;;;;;5061231;28;1497;-72
2022/08/04 11:21:38;;;;;;;;;;;;;;;;;;5060546;28;1491;-71
2022/08/04 11:24:07;;;;;;;;;;;;;;;;;;5061433;28;1280;-72
2022/08/04 11:26:40;;;;;;;;;;;;;;;;;;5052020;28;1546;-71
2022/08/04 11:29:15;;;;;;;;;;;;;;;;;;5063393;28;874;-72
2022/08/04 11:31:42;;;;;;;;;;;;;;;;;;5045086;28;1897;-72
2022/08/04 11:34:16;;;;;;;;;;;;;;;;;;5078130;28;1251;-72
2022/08/04 11:36:48;;;;;;;;;;;;;;;;;;5041806;28;1125;-72
2022/08/04 11:39:32;;;;;;;;;;;;;;;;;;5043058;28;989;-72
2022/08/04 11:42:05;;;;;;;;;;;;;;;;;;5053317;28;1529;-72
2022/08/04 11:44:41;;;;;;;;;;;;;;;;;;5066072;28;1250;-73
2022/08/04 11:47:32;;;;;;;;;;;;;;;;;;5081627;28;1326;-73
2022/08/04 11:50:19;;;;;;;;;;;;;;;;;;5040003;28;1961;-73
2022/08/04 11:52:44;;;;;;;;;;;;;;;;;;5039656;28;1203;-73
2022/08/04 11:55:10;;;;;;;;;;;;;;;;;;5061640;28;767;-73
2022/08/04 11:57:36;;;;;;;;;;;;;;;;;;5049392;28;1320;-73
2022/08/04 12:00:04;;;;;;;;;;;;;;;;;;5025372;28;1279;-73
2022/08/04 12:02:48;;;;;;;;;;;;;;;;;;5044289;28;1416;-73
2022/08/04 12:05:15;;;;;;;;;;;;;;;;;;5047789;28;1490;-72
2022/08/04 12:08:04;;;;;;;;;;;;;;;;;;5042247;28;1204;-73
2022/08/04 12:10:48;;;;;;;;;;;;;;;;;;5042947;28;1894;-72
2022/08/04 12:13:26;;;;;;;;;;;;;;;;;;5042647;28;973;-72
2022/08/04 12:15:52;;;;;;;;;;;;;;;;;;5048893;28;1094;-72
2022/08/04 12:18:20;;;;;;;;;;;;;;;;;;5033882;28;1475;-73
2022/08/04 12:20:47;;;;;;;;;;;;;;;;;;5048699;28;1255;-72
2022/08/04 12:23:23;;;;;;;;;;;;;;;;;;5055017;28;1348;-71
2022/08/04 12:25:51;;;;;;;;;;;;;;;;;;5052110;28;1239;-71
2022/08/04 12:28:19;;;;;;;;;;;;;;;;;;5047292;28;1259;-72
2022/08/04 12:30:49;;;;;;;;;;;;;;;;;;5047065;28;1906;-73
2022/08/04 12:33:19;;;;;;;;;;;;;;;;;;5047707;28;1231;-73
2022/08/04 12:35:52;;;;;;;;;;;;;;;;;;5049100;28;1284;-71
2022/08/04 12:38:19;;;;;;;;;;;;;;;;;;5047075;28;1290;-72
2022/08/04 12:40:53;;;;;;;;;;;;;;;;;;5050338;28;1300;-70
2022/08/04 12:43:19;;;;;;;;;;;;;;;;;;5051772;28;1350;-70
2022/08/04 12:45:47;;;;;;;;;;;;;;;;;;5048702;28;1302;-71
2022/08/04 12:48:13;;;;;;;;;;;;;;;;;;5047289;28;1265;-71
2022/08/04 12:50:38;;;;;;;;;;;;;;;;;;5049001;28;1902;-70
2022/08/04 12:53:10;;;;;;;;;;;;;;;;;;5051306;28;1804;-70
2022/08/04 12:55:35;;;;;;;;;;;;;;;;;;5052443;28;1220;-70
2022/08/04 12:58:03;;;;;;;;;;;;;;;;;;5052199;28;1255;-70
2022/08/04 13:00:32;;;;;;;;;;;;;;;;;;5051024;28;1353;-70
2022/08/04 13:03:16;;;;;;;;;;;;;;;;;;5052321;28;1329;-70
2022/08/04 13:05:41;;;;;;;;;;;;;;;;;;5051523;28;1275;-70
2022/08/04 13:08:07;;;;;;;;;;;;;;;;;;5052096;28;1294;-75
2022/08/04 13:10:37;;;;;;;;;;;;;;;;;;5053571;28;1980;-71
2022/08/04 13:13:02;;;;;;;;;;;;;;;;;;5053273;28;1253;-71
2022/08/04 13:15:29;;;;;;;;;;;;;;;;;;5050848;28;1224;-71
2022/08/04 13:17:56;;;;;;;;;;;;;;;;;;5050146;28;1515;-70
2022/08/04 13:20:26;;;;;;;;;;;;;;;;;;5047692;28;1393;-71
2022/08/04 13:22:56;;;;;;;;;;;;;;;;;;5050805;28;1319;-72
2022/08/04 13:25:25;;;;;;;;;;;;;;;;;;5052345;28;1758;-71
2022/08/04 13:27:50;;;;;;;;;;;;;;;;;;5047958;28;1345;-71
2022/08/04 13:30:17;;;;;;;;;;;;;;;;;;5049701;28;1972;-70
2022/08/04 13:32:42;;;;;;;;;;;;;;;;;;5050640;28;1472;-72
2022/08/04 13:35:08;;;;;;;;;;;;;;;;;;5047120;28;1484;-71
2022/08/04 13:37:35;;;;;;;;;;;;;;;;;;5022704;28;1705;-71
2022/08/04 13:40:03;;;;;;;;;;;;;;;;;;5024028;28;1708;-71
2022/08/04 13:42:29;;;;;;;;;;;;;;;;;;5054892;28;1420;-71
2022/08/04 13:44:58;;;;;;;;;;;;;;;;;;5050152;28;1287;-71
2022/08/04 13:47:27;;;;;;;;;;;;;;;;;;5040828;28;1724;-71
2022/08/04 13:50:10;;;;;;;;;;;;;;;;;;5049316;28;1333;-71
2022/08/04 13:52:35;;;;;;;;;;;;;;;;;;5043986;28;1220;-70
2022/08/04 13:55:00;;;;;;;;;;;;;;;;;;5048102;28;1510;-71
2022/08/04 13:57:30;;;;;;;;;;;;;;;;;;5050049;28;1370;-71
2022/08/04 14:00:07;;;;;;;;;;;;;;;;;;5058049;28;1304;-73
2022/08/04 14:02:51;;;;;;;;;;;;;;;;;;5057402;28;1850;-74
2022/08/04 14:05:24;;;;;;;;;;;;;;;;;;5067571;28;1526;-76
2022/08/04 14:07:53;;;;;;;;;;;;;;;;;;5063832;28;1427;-75
2022/08/04 14:10:18;;;;;;;;;;;;;;;;;;5060079;28;1965;-75
2022/08/04 14:12:48;;;;;;;;;;;;;;;;;;5064793;28;1235;-76
2022/08/04 14:15:29;;;;;;;;;;;;;;;;;;5063193;28;1411;-76
2022/08/04 14:18:14;;;;;;;;;;;;;;;;;;5067439;28;1310;-76
2022/08/04 14:20:56;;;;;;;;;;;;;;;;;;5065720;28;1471;-76
2022/08/04 14:23:21;;;;;;;;;;;;;;;;;;5063282;28;1461;-75
2022/08/04 14:25:46;;;;;;;;;;;;;;;;;;5067587;28;1364;-77
2022/08/04 14:28:11;;;;;;;;;;;;;;;;;;5073147;28;1259;-76
2022/08/04 14:30:37;;;;;;;;;;;;;;;;;;5062168;28;1963;-75
2022/08/04 14:33:11;;;;;;;;;;;;;;;;;;5051324;28;1480;-73
2022/08/04 14:35:37;;;;;;;;;;;;;;;;;;5061615;28;1255;-74
2022/08/04 14:38:06;;;;;;;;;;;;;;;;;;5065169;28;1433;-74
2022/08/04 14:40:33;;;;;;;;;;;;;;;;;;5059683;28;1455;-75
2022/08/04 14:45:38;;;;;;;;;;;;;;;;;;5468029;22;1853;-64
2022/08/04 14:48:07;;;;;;;;;;;;;;;;;;5058336;28;1485;-64
2022/08/04 14:50:51;;;;;;;;;;;;;;;;;;5057131;28;1910;-65
2022/08/04 14:53:20;;;;;;;;;;;;;;;;;;5059199;28;1584;-67
2022/08/04 14:55:49;;;;;;;;;;;;;;;;;;5057081;28;1971;-65
2022/08/04 14:58:22;;;;;;;;;;;;;;;;;;5054425;28;1524;-65
2022/08/04 15:00:48;;;;;;;;;;;;;;;;;;5056731;28;1297;-65
2022/08/04 15:03:13;;;;;;;;;;;;;;;;;;5053687;28;1611;-66
2022/08/04 15:05:40;;;;;;;;;;;;;;;;;;5039130;28;1688;-65
2022/08/04 15:08:05;;;;;;;;;;;;;;;;;;5057369;28;1283;-65
2022/08/04 15:10:30;;;;;;;;;;;;;;;;;;5053644;28;1894;-65
2022/08/04 15:12:56;;;;;;;;;;;;;;;;;;5058642;28;1366;-65
2022/08/04 15:15:24;;;;;;;;;;;;;;;;;;5057695;28;1337;-66
2022/08/04 15:17:52;;;;;;;;;;;;;;;;;;5056339;28;1567;-64
2022/08/04 15:20:18;;;;;;;;;;;;;;;;;;5055185;28;1274;-65
2022/08/04 15:22:43;;;;;;;;;;;;;;;;;;5052859;28;1327;-65
2022/08/04 15:25:08;;;;;;;;;;;;;;;;;;5057357;28;1362;-65
2022/08/04 15:27:36;;;;;;;;;;;;;;;;;;5059488;28;1755;-65
2022/08/04 15:30:03;;;;;;;;;;;;;;;;;;5061180;28;1216;-65
2022/08/04 15:32:35;;;;;;;;;;;;;;;;;;5062506;28;1573;-65
2022/08/04 15:35:11;;;;;;;;;;;;;;;;;;5060809;28;1697;-65
2022/08/04 15:37:42;;;;;;;;;;;;;;;;;;5043113;28;1308;-65
2022/08/04 15:40:10;;;;;;;;;;;;;;;;;;5058890;28;1563;-65
2022/08/04 15:42:43;;;;;;;;;;;;;;;;;;5056282;28;1538;-65
2022/08/04 15:45:14;;;;;;;;;;;;;;;;;;5058908;28;1318;-64
2022/08/04 15:47:39;;;;;;;;;;;;;;;;;;5054272;28;1283;-65
2022/08/04 15:50:09;;;;;;;;;;;;;;;;;;5048493;28;1989;-65
2022/08/04 15:52:53;;;;;;;;;;;;;;;;;;5049902;28;1410;-64
2022/08/04 15:55:33;;;;;;;;;;;;;;;;;;5058499;28;1326;-64
2022/08/04 15:58:00;;;;;;;;;;;;;;;;;;5052909;28;1337;-64
2022/08/04 16:00:26;;;;;;;;;;;;;;;;;;5057287;28;1302;-65
2022/08/04 16:02:51;;;;;;;;;;;;;;;;;;5031189;28;1426;-66
2022/08/04 16:05:19;;;;;;;;;;;;;;;;;;5046794;28;1349;-64
2022/08/04 16:07:55;;;;;;;;;;;;;;;;;;5045959;28;1402;-66
2022/08/04 16:10:34;;;;;;;;;;;;;;;;;;5053308;28;1906;-66
2022/08/04 16:13:06;;;;;;;;;;;;;;;;;;5031490;28;1334;-65
2022/08/04 16:15:35;;;;;;;;;;;;;;;;;;5050669;28;1250;-64
2022/08/04 16:18:01;;;;;;;;;;;;;;;;;;5050383;28;1334;-65
2022/08/04 16:20:26;;;;;;;;;;;;;;;;;;5044007;28;1271;-65
2022/08/04 16:22:55;;;;;;;;;;;;;;;;;;5052612;28;1401;-65
2022/08/04 16:25:40;;;;;;;;;;;;;;;;;;5050064;28;1298;-65
2022/08/04 16:28:05;;;;;;;;;;;;;;;;;;5050840;28;1244;-65
2022/08/04 16:30:38;;;;;;;;;;;;;;;;;;5047243;28;1893;-64
2022/08/04 16:33:06;;;;;;;;;;;;;;;;;;5042846;28;1160;-65
2022/08/04 16:35:33;;;;;;;;;;;;;;;;;;5053922;28;1651;-64
2022/08/04 16:38:14;;;;;;;;;;;;;;;;;;5044646;28;1388;-65
2022/08/04 16:40:43;;;;;;;;;;;;;;;;;;5045300;28;1260;-65
2022/08/04 16:43:09;;;;;;;;;;;;;;;;;;5053233;28;1243;-65
2022/08/04 16:45:38;;;;;;;;;;;;;;;;;;5056433;28;1656;-65
2022/08/04 16:48:07;;;;;;;;;;;;;;;;;;5044780;28;1049;-65
2022/08/04 16:50:33;;;;;;;;;;;;;;;;;;5028925;28;1956;-65
2022/08/04 16:52:58;;;;;;;;;;;;;;;;;;5046331;28;1422;-64
2022/08/04 16:55:24;;;;;;;;;;;;;;;;;;5047298;28;1266;-65
2022/08/04 16:57:53;;;;;;;;;;;;;;;;;;5042820;28;1164;-65
2022/08/04 17:00:39;;;;;;;;;;;;;;;;;;5047447;28;1295;-64
2022/08/04 17:03:05;;;;;;;;;;;;;;;;;;5055033;28;1275;-64
2022/08/04 17:05:31;;;;;;;;;;;;;;;;;;5056192;28;1417;-64
2022/08/04 17:07:57;;;;;;;;;;;;;;;;;;5051245;28;1350;-64
2022/08/04 17:10:33;;;;;;;;;;;;;;;;;;5050231;28;1953;-64
2022/08/04 17:12:58;;;;;;;;;;;;;;;;;;5045768;28;1239;-64
2022/08/04 17:15:24;;;;;;;;;;;;;;;;;;5050296;28;1556;-66
2022/08/04 17:17:50;;;;;;;;;;;;;;;;;;5032654;28;1324;-65
2022/08/04 17:20:15;;;;;;;;;;;;;;;;;;5043061;28;1315;-65
2022/08/04 17:22:41;;;;;;;;;;;;;;;;;;5042714;28;1463;-64
2022/08/04 17:25:06;;;;;;;;;;;;;;;;;;5046005;28;1330;-64
2022/08/04 17:27:31;;;;;;;;;;;;;;;;;;5038818;28;1605;-65
2022/08/04 17:29:57;;;;;;;;;;;;;;;;;;5040558;28;1232;-65
2022/08/04 17:32:22;;;;;;;;;;;;;;;;;;5045377;28;1953;-65